sensor_id;sensor_type;location;lat;lon;timestamp;P1;durP1;ratioP1;P2;durP2;ratioP2
3949;SDS011;53057;50.988;6.314;2022-09-01T00:01:12;20.93;;;5.37;;
3949;SDS011;53057;50.988;6.314;2022-09-01T00:03:47;16.80;;;5.83;;
3949;SDS011;53057;50.988;6.314;2022-09-01T00:06:14;10.33;;;5.80;;
3949;SDS011;53057;50.988;6.314;2022-09-01T00:08:41;9.40;;;5.27;;
3949;SDS011;53057;50.988;6.314;2022-09-01T00:11:08;12.03;;;5.00;;
3949;SDS011;53057;50.988;6.314;2022-09-01T00:13:34;11.00;;;6.20;;
3949;SDS011;53057;50.988;6.314;2022-09-01T00:16:01;13.90;;;5.27;;
3949;SDS011;53057;50.988;6.314;2022-09-01T00:18:30;10.20;;;6.50;;
3949;SDS011;53057;50.988;6.314;2022-09-01T00:20:58;8.47;;;5.90;;
3949;SDS011;53057;50.988;6.314;2022-09-01T00:23:26;11.23;;;7.00;;
3949;SDS011;53057;50.988;6.314;2022-09-01T00:25:53;9.60;;;4.67;;
3949;SDS011;53057;50.988;6.314;2022-09-01T00:28:21;6.70;;;5.17;;
3949;SDS011;53057;50.988;6.314;2022-09-01T00:30:54;6.13;;;5.47;;
3949;SDS011;53057;50.988;6.314;2022-09-01T00:33:21;8.43;;;4.93;;
3949;SDS011;53057;50.988;6.314;2022-09-01T00:35:47;12.90;;;4.80;;
3949;SDS011;53057;50.988;6.314;2022-09-01T00:38:14;7.23;;;4.27;;
3949;SDS011;53057;50.988;6.314;2022-09-01T00:40:41;8.10;;;4.60;;
3949;SDS011;53057;50.988;6.314;2022-09-01T00:43:21;6.57;;;4.43;;
3949;SDS011;53057;50.988;6.314;2022-09-01T00:45:49;9.43;;;5.20;;
3949;SDS011;53057;50.988;6.314;2022-09-01T00:48:17;10.20;;;4.53;;
3949;SDS011;53057;50.988;6.314;2022-09-01T00:50:45;14.40;;;4.90;;
3949;SDS011;53057;50.988;6.314;2022-09-01T00:53:19;8.23;;;4.20;;
3949;SDS011;53057;50.988;6.314;2022-09-01T00:55:46;12.20;;;5.50;;
3949;SDS011;53057;50.988;6.314;2022-09-01T00:58:13;5.87;;;5.00;;
3949;SDS011;53057;50.988;6.314;2022-09-01T01:00:45;14.10;;;5.17;;
3949;SDS011;53057;50.988;6.314;2022-09-01T01:03:15;16.10;;;5.87;;
3949;SDS011;53057;50.988;6.314;2022-09-01T01:05:43;16.03;;;6.30;;
3949;SDS011;53057;50.988;6.314;2022-09-01T01:08:12;17.83;;;5.37;;
3949;SDS011;53057;50.988;6.314;2022-09-01T01:10:40;9.63;;;5.37;;
3949;SDS011;53057;50.988;6.314;2022-09-01T01:13:08;10.23;;;5.10;;
3949;SDS011;53057;50.988;6.314;2022-09-01T01:15:35;11.67;;;4.90;;
3949;SDS011;53057;50.988;6.314;2022-09-01T01:18:02;14.93;;;5.33;;
3949;SDS011;53057;50.988;6.314;2022-09-01T01:20:29;19.40;;;6.10;;
3949;SDS011;53057;50.988;6.314;2022-09-01T01:23:18;10.10;;;4.77;;
3949;SDS011;53057;50.988;6.314;2022-09-01T01:25:51;12.63;;;5.70;;
3949;SDS011;53057;50.988;6.314;2022-09-01T01:28:20;7.90;;;5.20;;
3949;SDS011;53057;50.988;6.314;2022-09-01T01:30:55;10.73;;;6.93;;
3949;SDS011;53057;50.988;6.314;2022-09-01T01:33:27;9.50;;;5.70;;
3949;SDS011;53057;50.988;6.314;2022-09-01T01:35:56;8.53;;;6.10;;
3949;SDS011;53057;50.988;6.314;2022-09-01T01:38:25;8.50;;;5.53;;
3949;SDS011;53057;50.988;6.314;2022-09-01T01:40:54;9.20;;;6.30;;
3949;SDS011;53057;50.988;6.314;2022-09-01T01:43:22;7.80;;;7.00;;
3949;SDS011;53057;50.988;6.314;2022-09-01T01:45:50;10.77;;;6.80;;
3949;SDS011;53057;50.988;6.314;2022-09-01T01:48:20;15.23;;;7.23;;
3949;SDS011;53057;50.988;6.314;2022-09-01T01:50:50;10.27;;;7.77;;
3949;SDS011;53057;50.988;6.314;2022-09-01T01:53:18;8.40;;;6.70;;
3949;SDS011;53057;50.988;6.314;2022-09-01T01:55:46;12.10;;;7.30;;
3949;SDS011;53057;50.988;6.314;2022-09-01T01:58:16;13.03;;;7.30;;
3949;SDS011;53057;50.988;6.314;2022-09-01T02:00:46;12.93;;;7.47;;
3949;SDS011;53057;50.988;6.314;2022-09-01T02:03:14;10.07;;;7.13;;
3949;SDS011;53057;50.988;6.314;2022-09-01T02:05:45;9.47;;;7.00;;
3949;SDS011;53057;50.988;6.314;2022-09-01T02:08:13;14.70;;;8.57;;
3949;SDS011;53057;50.988;6.314;2022-09-01T02:10:47;13.10;;;6.43;;
3949;SDS011;53057;50.988;6.314;2022-09-01T02:13:15;11.93;;;6.60;;
3949;SDS011;53057;50.988;6.314;2022-09-01T02:15:44;11.03;;;7.20;;
3949;SDS011;53057;50.988;6.314;2022-09-01T02:18:13;15.30;;;7.27;;
3949;SDS011;53057;50.988;6.314;2022-09-01T02:20:43;9.60;;;6.40;;
3949;SDS011;53057;50.988;6.314;2022-09-01T02:23:10;13.77;;;7.70;;
3949;SDS011;53057;50.988;6.314;2022-09-01T02:25:38;7.17;;;6.47;;
3949;SDS011;53057;50.988;6.314;2022-09-01T02:28:32;9.00;;;6.07;;
3949;SDS011;53057;50.988;6.314;2022-09-01T02:31:02;8.10;;;6.40;;
3949;SDS011;53057;50.988;6.314;2022-09-01T02:33:30;12.70;;;8.10;;
3949;SDS011;53057;50.988;6.314;2022-09-01T02:35:58;10.43;;;6.93;;
3949;SDS011;53057;50.988;6.314;2022-09-01T02:38:26;13.97;;;6.63;;
3949;SDS011;53057;50.988;6.314;2022-09-01T02:40:57;8.00;;;7.17;;
3949;SDS011;53057;50.988;6.314;2022-09-01T02:43:24;22.53;;;7.07;;
3949;SDS011;53057;50.988;6.314;2022-09-01T02:45:54;16.03;;;8.33;;
3949;SDS011;53057;50.988;6.314;2022-09-01T02:48:24;8.60;;;7.67;;
3949;SDS011;53057;50.988;6.314;2022-09-01T02:50:52;13.17;;;7.50;;
3949;SDS011;53057;50.988;6.314;2022-09-01T02:53:19;18.03;;;8.63;;
3949;SDS011;53057;50.988;6.314;2022-09-01T02:55:46;12.93;;;8.17;;
3949;SDS011;53057;50.988;6.314;2022-09-01T02:58:13;18.97;;;8.43;;
3949;SDS011;53057;50.988;6.314;2022-09-01T03:00:52;15.40;;;8.27;;
3949;SDS011;53057;50.988;6.314;2022-09-01T03:03:20;15.43;;;8.37;;
3949;SDS011;53057;50.988;6.314;2022-09-01T03:05:49;14.97;;;8.50;;
3949;SDS011;53057;50.988;6.314;2022-09-01T03:08:19;10.80;;;7.40;;
3949;SDS011;53057;50.988;6.314;2022-09-01T03:10:46;14.33;;;7.33;;
3949;SDS011;53057;50.988;6.314;2022-09-01T03:13:15;13.77;;;7.63;;
3949;SDS011;53057;50.988;6.314;2022-09-01T03:15:43;10.17;;;7.10;;
3949;SDS011;53057;50.988;6.314;2022-09-01T03:18:11;7.63;;;6.83;;
3949;SDS011;53057;50.988;6.314;2022-09-01T03:20:39;20.37;;;8.97;;
3949;SDS011;53057;50.988;6.314;2022-09-01T03:23:10;9.97;;;8.93;;
3949;SDS011;53057;50.988;6.314;2022-09-01T03:25:38;10.13;;;8.90;;
3949;SDS011;53057;50.988;6.314;2022-09-01T03:28:04;15.50;;;8.70;;
3949;SDS011;53057;50.988;6.314;2022-09-01T03:30:32;17.50;;;8.70;;
3949;SDS011;53057;50.988;6.314;2022-09-01T03:33:00;13.23;;;9.73;;
3949;SDS011;53057;50.988;6.314;2022-09-01T03:35:29;7.53;;;6.83;;
3949;SDS011;53057;50.988;6.314;2022-09-01T03:37:58;7.77;;;6.97;;
3949;SDS011;53057;50.988;6.314;2022-09-01T03:40:27;10.20;;;7.60;;
3949;SDS011;53057;50.988;6.314;2022-09-01T03:42:55;14.53;;;8.67;;
3949;SDS011;53057;50.988;6.314;2022-09-01T03:45:22;10.33;;;7.70;;
3949;SDS011;53057;50.988;6.314;2022-09-01T03:47:51;7.90;;;7.10;;
3949;SDS011;53057;50.988;6.314;2022-09-01T03:50:21;17.47;;;7.00;;
3949;SDS011;53057;50.988;6.314;2022-09-01T03:52:52;9.37;;;8.37;;
3949;SDS011;53057;50.988;6.314;2022-09-01T03:55:20;7.83;;;6.93;;
3949;SDS011;53057;50.988;6.314;2022-09-01T03:57:49;14.23;;;7.33;;
3949;SDS011;53057;50.988;6.314;2022-09-01T04:00:17;6.70;;;6.20;;
3949;SDS011;53057;50.988;6.314;2022-09-01T04:02:49;7.83;;;7.13;;
3949;SDS011;53057;50.988;6.314;2022-09-01T04:05:23;6.80;;;6.17;;
3949;SDS011;53057;50.988;6.314;2022-09-01T04:07:56;14.77;;;7.13;;
3949;SDS011;53057;50.988;6.314;2022-09-01T04:10:23;7.30;;;6.60;;
3949;SDS011;53057;50.988;6.314;2022-09-01T04:12:50;10.20;;;6.60;;
3949;SDS011;53057;50.988;6.314;2022-09-01T04:15:16;8.53;;;7.63;;
3949;SDS011;53057;50.988;6.314;2022-09-01T04:17:44;9.93;;;6.67;;
3949;SDS011;53057;50.988;6.314;2022-09-01T04:20:30;9.87;;;6.80;;
3949;SDS011;53057;50.988;6.314;2022-09-01T04:23:05;11.47;;;7.40;;
3949;SDS011;53057;50.988;6.314;2022-09-01T04:25:36;7.30;;;6.70;;
3949;SDS011;53057;50.988;6.314;2022-09-01T04:28:04;9.97;;;7.30;;
3949;SDS011;53057;50.988;6.314;2022-09-01T04:30:43;17.40;;;6.70;;
3949;SDS011;53057;50.988;6.314;2022-09-01T04:33:14;12.43;;;7.90;;
3949;SDS011;53057;50.988;6.314;2022-09-01T04:35:42;11.93;;;6.60;;
3949;SDS011;53057;50.988;6.314;2022-09-01T04:38:09;6.97;;;6.27;;
3949;SDS011;53057;50.988;6.314;2022-09-01T04:40:38;8.10;;;7.17;;
3949;SDS011;53057;50.988;6.314;2022-09-01T04:43:06;11.97;;;8.70;;
3949;SDS011;53057;50.988;6.314;2022-09-01T04:45:36;10.13;;;7.43;;
3949;SDS011;53057;50.988;6.314;2022-09-01T04:48:03;13.13;;;9.77;;
3949;SDS011;53057;50.988;6.314;2022-09-01T04:50:31;16.97;;;8.53;;
3949;SDS011;53057;50.988;6.314;2022-09-01T04:53:23;12.30;;;8.73;;
3949;SDS011;53057;50.988;6.314;2022-09-01T04:55:54;9.77;;;7.97;;
3949;SDS011;53057;50.988;6.314;2022-09-01T04:58:23;23.73;;;7.93;;
3949;SDS011;53057;50.988;6.314;2022-09-01T05:00:51;11.13;;;7.83;;
3949;SDS011;53057;50.988;6.314;2022-09-01T05:03:18;16.30;;;8.40;;
3949;SDS011;53057;50.988;6.314;2022-09-01T05:06:13;11.33;;;8.60;;
3949;SDS011;53057;50.988;6.314;2022-09-01T05:08:45;28.40;;;8.97;;
3949;SDS011;53057;50.988;6.314;2022-09-01T05:11:21;21.43;;;9.53;;
3949;SDS011;53057;50.988;6.314;2022-09-01T05:13:56;14.90;;;8.10;;
3949;SDS011;53057;50.988;6.314;2022-09-01T05:16:23;18.23;;;8.37;;
3949;SDS011;53057;50.988;6.314;2022-09-01T05:18:54;19.33;;;9.30;;
3949;SDS011;53057;50.988;6.314;2022-09-01T05:21:26;15.93;;;9.10;;
3949;SDS011;53057;50.988;6.314;2022-09-01T05:23:58;8.50;;;7.70;;
3949;SDS011;53057;50.988;6.314;2022-09-01T05:26:31;10.37;;;7.90;;
3949;SDS011;53057;50.988;6.314;2022-09-01T05:29:00;22.43;;;10.13;;
3949;SDS011;53057;50.988;6.314;2022-09-01T05:31:27;15.23;;;8.03;;
3949;SDS011;53057;50.988;6.314;2022-09-01T05:33:59;24.33;;;9.37;;
3949;SDS011;53057;50.988;6.314;2022-09-01T05:36:27;9.40;;;7.67;;
3949;SDS011;53057;50.988;6.314;2022-09-01T05:38:56;15.33;;;8.60;;
3949;SDS011;53057;50.988;6.314;2022-09-01T05:41:24;17.10;;;8.20;;
3949;SDS011;53057;50.988;6.314;2022-09-01T05:43:52;10.90;;;8.30;;
3949;SDS011;53057;50.988;6.314;2022-09-01T05:46:25;13.80;;;8.97;;
3949;SDS011;53057;50.988;6.314;2022-09-01T05:48:54;14.87;;;7.87;;
3949;SDS011;53057;50.988;6.314;2022-09-01T05:51:23;16.97;;;7.13;;
3949;SDS011;53057;50.988;6.314;2022-09-01T05:54:09;10.73;;;7.53;;
3949;SDS011;53057;50.988;6.314;2022-09-01T05:56:38;14.97;;;6.60;;
3949;SDS011;53057;50.988;6.314;2022-09-01T05:59:12;11.50;;;6.93;;
3949;SDS011;53057;50.988;6.314;2022-09-01T06:01:50;10.10;;;7.10;;
3949;SDS011;53057;50.988;6.314;2022-09-01T06:04:19;14.33;;;6.40;;
3949;SDS011;53057;50.988;6.314;2022-09-01T06:06:46;11.77;;;6.20;;
3949;SDS011;53057;50.988;6.314;2022-09-01T06:09:37;10.73;;;5.67;;
3949;SDS011;53057;50.988;6.314;2022-09-01T06:12:04;15.10;;;7.27;;
3949;SDS011;53057;50.988;6.314;2022-09-01T06:14:32;11.93;;;5.80;;
3949;SDS011;53057;50.988;6.314;2022-09-01T06:16:59;24.63;;;6.00;;
3949;SDS011;53057;50.988;6.314;2022-09-01T06:19:26;10.70;;;5.13;;
3949;SDS011;53057;50.988;6.314;2022-09-01T06:21:53;7.90;;;5.10;;
3949;SDS011;53057;50.988;6.314;2022-09-01T06:24:23;11.87;;;5.70;;
3949;SDS011;53057;50.988;6.314;2022-09-01T06:26:50;8.93;;;5.27;;
3949;SDS011;53057;50.988;6.314;2022-09-01T06:29:17;9.73;;;5.20;;
3949;SDS011;53057;50.988;6.314;2022-09-01T06:31:48;11.83;;;5.90;;
3949;SDS011;53057;50.988;6.314;2022-09-01T06:34:19;8.93;;;5.73;;
3949;SDS011;53057;50.988;6.314;2022-09-01T06:36:46;7.20;;;5.00;;
3949;SDS011;53057;50.988;6.314;2022-09-01T06:39:14;13.30;;;4.87;;
3949;SDS011;53057;50.988;6.314;2022-09-01T06:41:49;6.60;;;4.37;;
3949;SDS011;53057;50.988;6.314;2022-09-01T06:44:22;6.47;;;4.53;;
3949;SDS011;53057;50.988;6.314;2022-09-01T06:47:03;9.13;;;5.17;;
3949;SDS011;53057;50.988;6.314;2022-09-01T06:49:30;8.57;;;5.30;;
3949;SDS011;53057;50.988;6.314;2022-09-01T06:52:03;4.80;;;3.77;;
3949;SDS011;53057;50.988;6.314;2022-09-01T06:54:30;5.70;;;4.07;;
3949;SDS011;53057;50.988;6.314;2022-09-01T06:57:00;7.63;;;3.43;;
3949;SDS011;53057;50.988;6.314;2022-09-01T06:59:49;4.10;;;3.80;;
3949;SDS011;53057;50.988;6.314;2022-09-01T07:02:19;4.30;;;3.57;;
3949;SDS011;53057;50.988;6.314;2022-09-01T07:05:11;5.40;;;3.30;;
3949;SDS011;53057;50.988;6.314;2022-09-01T07:08:02;7.43;;;3.50;;
3949;SDS011;53057;50.988;6.314;2022-09-01T07:10:46;5.80;;;3.13;;
3949;SDS011;53057;50.988;6.314;2022-09-01T07:13:33;8.10;;;2.77;;
3949;SDS011;53057;50.988;6.314;2022-09-01T07:16:04;3.47;;;3.10;;
3949;SDS011;53057;50.988;6.314;2022-09-01T07:18:53;8.67;;;2.07;;
3949;SDS011;53057;50.988;6.314;2022-09-01T07:21:53;2.30;;;2.03;;
3949;SDS011;53057;50.988;6.314;2022-09-01T07:24:44;3.13;;;2.77;;
3949;SDS011;53057;50.988;6.314;2022-09-01T07:27:41;2.50;;;2.30;;
3949;SDS011;53057;50.988;6.314;2022-09-01T07:30:17;2.90;;;2.60;;
3949;SDS011;53057;50.988;6.314;2022-09-01T07:32:47;6.30;;;2.63;;
3949;SDS011;53057;50.988;6.314;2022-09-01T07:35:16;3.93;;;2.70;;
3949;SDS011;53057;50.988;6.314;2022-09-01T07:37:44;2.67;;;2.47;;
3949;SDS011;53057;50.988;6.314;2022-09-01T07:40:31;4.57;;;1.90;;
3949;SDS011;53057;50.988;6.314;2022-09-01T07:43:38;5.30;;;2.07;;
3949;SDS011;53057;50.988;6.314;2022-09-01T07:46:10;6.27;;;2.80;;
3949;SDS011;53057;50.988;6.314;2022-09-01T07:48:58;7.13;;;3.07;;
3949;SDS011;53057;50.988;6.314;2022-09-01T07:51:44;5.63;;;2.17;;
3949;SDS011;53057;50.988;6.314;2022-09-01T07:54:18;3.67;;;2.40;;
3949;SDS011;53057;50.988;6.314;2022-09-01T07:56:45;5.23;;;2.97;;
3949;SDS011;53057;50.988;6.314;2022-09-01T07:59:12;3.87;;;2.40;;
3949;SDS011;53057;50.988;6.314;2022-09-01T08:01:59;3.73;;;2.33;;
3949;SDS011;53057;50.988;6.314;2022-09-01T08:04:31;5.77;;;2.60;;
3949;SDS011;53057;50.988;6.314;2022-09-01T08:06:59;4.37;;;2.23;;
3949;SDS011;53057;50.988;6.314;2022-09-01T08:09:27;6.40;;;2.00;;
3949;SDS011;53057;50.988;6.314;2022-09-01T08:12:04;5.10;;;2.43;;
3949;SDS011;53057;50.988;6.314;2022-09-01T08:14:37;4.50;;;2.53;;
3949;SDS011;53057;50.988;6.314;2022-09-01T08:17:05;4.33;;;3.00;;
3949;SDS011;53057;50.988;6.314;2022-09-01T08:19:53;3.57;;;2.40;;
3949;SDS011;53057;50.988;6.314;2022-09-01T08:22:35;7.30;;;3.20;;
3949;SDS011;53057;50.988;6.314;2022-09-01T08:25:14;4.63;;;2.80;;
3949;SDS011;53057;50.988;6.314;2022-09-01T08:27:41;2.87;;;2.50;;
3949;SDS011;53057;50.988;6.314;2022-09-01T08:30:09;4.70;;;2.60;;
3949;SDS011;53057;50.988;6.314;2022-09-01T08:32:38;5.27;;;2.77;;
3949;SDS011;53057;50.988;6.314;2022-09-01T08:35:08;4.57;;;3.03;;
3949;SDS011;53057;50.988;6.314;2022-09-01T08:37:35;4.60;;;2.90;;
3949;SDS011;53057;50.988;6.314;2022-09-01T08:40:06;10.40;;;3.40;;
3949;SDS011;53057;50.988;6.314;2022-09-01T08:42:46;5.40;;;3.10;;
3949;SDS011;53057;50.988;6.314;2022-09-01T08:45:19;5.83;;;2.87;;
3949;SDS011;53057;50.988;6.314;2022-09-01T08:47:47;6.40;;;2.47;;
3949;SDS011;53057;50.988;6.314;2022-09-01T08:50:34;8.63;;;2.17;;
3949;SDS011;53057;50.988;6.314;2022-09-01T08:55:46;5.17;;;2.53;;
3949;SDS011;53057;50.988;6.314;2022-09-01T08:58:15;4.27;;;2.57;;
3949;SDS011;53057;50.988;6.314;2022-09-01T09:01:30;3.90;;;1.90;;
3949;SDS011;53057;50.988;6.314;2022-09-01T09:04:06;4.50;;;2.23;;
3949;SDS011;53057;50.988;6.314;2022-09-01T09:09:20;2.27;;;2.07;;
3949;SDS011;53057;50.988;6.314;2022-09-01T09:14:50;6.50;;;2.20;;
3949;SDS011;53057;50.988;6.314;2022-09-01T09:17:21;8.07;;;2.87;;
3949;SDS011;53057;50.988;6.314;2022-09-01T09:19:49;2.33;;;2.13;;
3949;SDS011;53057;50.988;6.314;2022-09-01T09:25:32;4.00;;;1.30;;
3949;SDS011;53057;50.988;6.314;2022-09-01T09:27:59;3.00;;;1.23;;
3949;SDS011;53057;50.988;6.314;2022-09-01T09:30:27;1.93;;;1.13;;
3949;SDS011;53057;50.988;6.314;2022-09-01T09:35:50;1.47;;;1.23;;
3949;SDS011;53057;50.988;6.314;2022-09-01T09:38:21;4.37;;;1.80;;
3949;SDS011;53057;50.988;6.314;2022-09-01T09:54:29;2.47;;;1.53;;
3949;SDS011;53057;50.988;6.314;2022-09-01T09:59:37;3.20;;;1.57;;
3949;SDS011;53057;50.988;6.314;2022-09-01T10:05:10;5.03;;;1.40;;
3949;SDS011;53057;50.988;6.314;2022-09-01T10:07:47;12.57;;;1.50;;
3949;SDS011;53057;50.988;6.314;2022-09-01T10:13:24;6.40;;;1.67;;
3949;SDS011;53057;50.988;6.314;2022-09-01T10:15:54;1.60;;;1.33;;
3949;SDS011;53057;50.988;6.314;2022-09-01T10:18:22;2.40;;;1.00;;
3949;SDS011;53057;50.988;6.314;2022-09-01T10:21:01;3.73;;;1.73;;
3949;SDS011;53057;50.988;6.314;2022-09-01T10:23:30;2.07;;;1.00;;
3949;SDS011;53057;50.988;6.314;2022-09-01T10:26:01;2.20;;;1.17;;
3949;SDS011;53057;50.988;6.314;2022-09-01T10:28:37;4.73;;;1.00;;
3949;SDS011;53057;50.988;6.314;2022-09-01T10:31:15;1.20;;;0.87;;
3949;SDS011;53057;50.988;6.314;2022-09-01T10:33:42;3.17;;;1.77;;
3949;SDS011;53057;50.988;6.314;2022-09-01T10:36:09;2.00;;;1.67;;
3949;SDS011;53057;50.988;6.314;2022-09-01T10:38:36;1.50;;;1.40;;
3949;SDS011;53057;50.988;6.314;2022-09-01T10:41:04;1.43;;;1.33;;
3949;SDS011;53057;50.988;6.314;2022-09-01T10:48:51;4.10;;;2.60;;
3949;SDS011;53057;50.988;6.314;2022-09-01T10:53:56;1.10;;;1.00;;
3949;SDS011;53057;50.988;6.314;2022-09-01T10:56:38;2.53;;;1.10;;
3949;SDS011;53057;50.988;6.314;2022-09-01T11:02:12;8.90;;;1.30;;
3949;SDS011;53057;50.988;6.314;2022-09-01T11:07:30;2.13;;;1.80;;
3949;SDS011;53057;50.988;6.314;2022-09-01T11:15:33;3.03;;;1.20;;
3949;SDS011;53057;50.988;6.314;2022-09-01T11:18:01;5.43;;;2.23;;
3949;SDS011;53057;50.988;6.314;2022-09-01T11:20:33;2.30;;;1.00;;
3949;SDS011;53057;50.988;6.314;2022-09-01T11:23:05;1.23;;;1.13;;
3949;SDS011;53057;50.988;6.314;2022-09-01T11:35:31;4.83;;;1.40;;
3949;SDS011;53057;50.988;6.314;2022-09-01T11:38:03;1.40;;;1.30;;
3949;SDS011;53057;50.988;6.314;2022-09-01T11:40:32;2.03;;;1.30;;
3949;SDS011;53057;50.988;6.314;2022-09-01T11:43:00;1.10;;;1.00;;
3949;SDS011;53057;50.988;6.314;2022-09-01T11:45:30;1.73;;;1.07;;
3949;SDS011;53057;50.988;6.314;2022-09-01T11:48:01;1.63;;;1.20;;
3949;SDS011;53057;50.988;6.314;2022-09-01T11:50:37;1.50;;;1.40;;
3949;SDS011;53057;50.988;6.314;2022-09-01T11:53:05;2.97;;;2.77;;
3949;SDS011;53057;50.988;6.314;2022-09-01T11:58:00;1.20;;;1.07;;
3949;SDS011;53057;50.988;6.314;2022-09-01T12:00:29;1.50;;;1.30;;
3949;SDS011;53057;50.988;6.314;2022-09-01T12:02:56;3.03;;;1.20;;
3949;SDS011;53057;50.988;6.314;2022-09-01T12:07:50;1.10;;;1.00;;
3949;SDS011;53057;50.988;6.314;2022-09-01T12:10:19;1.00;;;0.90;;
3949;SDS011;53057;50.988;6.314;2022-09-01T12:12:47;1.70;;;1.60;;
3949;SDS011;53057;50.988;6.314;2022-09-01T12:17:44;2.70;;;1.60;;
3949;SDS011;53057;50.988;6.314;2022-09-01T12:20:21;1.70;;;1.57;;
3949;SDS011;53057;50.988;6.314;2022-09-01T12:22:54;4.37;;;1.30;;
3949;SDS011;53057;50.988;6.314;2022-09-01T12:25:26;2.80;;;1.40;;
3949;SDS011;53057;50.988;6.314;2022-09-01T12:27:53;2.50;;;1.60;;
3949;SDS011;53057;50.988;6.314;2022-09-01T12:30:21;1.37;;;1.20;;
3949;SDS011;53057;50.988;6.314;2022-09-01T12:32:48;1.37;;;1.27;;
3949;SDS011;53057;50.988;6.314;2022-09-01T12:35:21;1.27;;;1.20;;
3949;SDS011;53057;50.988;6.314;2022-09-01T12:37:48;1.83;;;1.63;;
3949;SDS011;53057;50.988;6.314;2022-09-01T12:40:30;18.73;;;2.80;;
3949;SDS011;53057;50.988;6.314;2022-09-01T12:43:01;12.87;;;1.47;;
3949;SDS011;53057;50.988;6.314;2022-09-01T12:45:38;1.97;;;1.80;;
3949;SDS011;53057;50.988;6.314;2022-09-01T12:48:05;3.00;;;1.20;;
3949;SDS011;53057;50.988;6.314;2022-09-01T12:50:33;11.10;;;3.00;;
3949;SDS011;53057;50.988;6.314;2022-09-01T12:53:00;5.67;;;1.53;;
3949;SDS011;53057;50.988;6.314;2022-09-01T12:55:29;2.13;;;1.60;;
3949;SDS011;53057;50.988;6.314;2022-09-01T12:58:20;1.67;;;1.43;;
3949;SDS011;53057;50.988;6.314;2022-09-01T13:01:09;4.90;;;1.70;;
3949;SDS011;53057;50.988;6.314;2022-09-01T13:04:04;1.57;;;1.20;;
3949;SDS011;53057;50.988;6.314;2022-09-01T13:06:30;7.67;;;1.73;;
3949;SDS011;53057;50.988;6.314;2022-09-01T13:08:57;2.07;;;1.07;;
3949;SDS011;53057;50.988;6.314;2022-09-01T13:11:23;1.40;;;1.30;;
3949;SDS011;53057;50.988;6.314;2022-09-01T13:13:51;1.87;;;1.10;;
3949;SDS011;53057;50.988;6.314;2022-09-01T13:16:18;1.33;;;1.23;;
3949;SDS011;53057;50.988;6.314;2022-09-01T13:18:45;1.33;;;1.23;;
3949;SDS011;53057;50.988;6.314;2022-09-01T13:21:38;1.73;;;1.63;;
3949;SDS011;53057;50.988;6.314;2022-09-01T13:24:12;1.70;;;1.30;;
3949;SDS011;53057;50.988;6.314;2022-09-01T13:26:40;3.17;;;1.30;;
3949;SDS011;53057;50.988;6.314;2022-09-01T13:29:07;3.20;;;2.23;;
3949;SDS011;53057;50.988;6.314;2022-09-01T13:31:34;3.83;;;1.50;;
3949;SDS011;53057;50.988;6.314;2022-09-01T13:34:01;1.37;;;1.27;;
3949;SDS011;53057;50.988;6.314;2022-09-01T13:36:48;1.90;;;1.37;;
3949;SDS011;53057;50.988;6.314;2022-09-01T13:39:20;1.30;;;1.20;;
3949;SDS011;53057;50.988;6.314;2022-09-01T13:41:52;2.67;;;1.63;;
3949;SDS011;53057;50.988;6.314;2022-09-01T13:44:19;2.83;;;1.50;;
3949;SDS011;53057;50.988;6.314;2022-09-01T13:46:46;2.30;;;1.43;;
3949;SDS011;53057;50.988;6.314;2022-09-01T13:49:34;1.37;;;1.27;;
3949;SDS011;53057;50.988;6.314;2022-09-01T13:52:21;1.60;;;1.40;;
3949;SDS011;53057;50.988;6.314;2022-09-01T13:54:48;1.60;;;1.27;;
3949;SDS011;53057;50.988;6.314;2022-09-01T13:57:15;5.17;;;2.17;;
3949;SDS011;53057;50.988;6.314;2022-09-01T13:59:42;2.90;;;2.07;;
3949;SDS011;53057;50.988;6.314;2022-09-01T14:02:09;2.13;;;1.20;;
3949;SDS011;53057;50.988;6.314;2022-09-01T14:04:36;3.70;;;1.73;;
3949;SDS011;53057;50.988;6.314;2022-09-01T14:07:08;2.10;;;1.90;;
3949;SDS011;53057;50.988;6.314;2022-09-01T14:09:40;1.00;;;1.00;;
3949;SDS011;53057;50.988;6.314;2022-09-01T14:12:11;4.10;;;1.87;;
3949;SDS011;53057;50.988;6.314;2022-09-01T14:14:38;2.07;;;1.97;;
3949;SDS011;53057;50.988;6.314;2022-09-01T14:17:24;1.80;;;1.70;;
3949;SDS011;53057;50.988;6.314;2022-09-01T14:19:52;3.47;;;1.40;;
3949;SDS011;53057;50.988;6.314;2022-09-01T14:22:19;4.43;;;1.73;;
3949;SDS011;53057;50.988;6.314;2022-09-01T14:24:45;4.80;;;2.30;;
3949;SDS011;53057;50.988;6.314;2022-09-01T14:27:12;3.33;;;1.33;;
3949;SDS011;53057;50.988;6.314;2022-09-01T14:29:39;1.80;;;1.70;;
3949;SDS011;53057;50.988;6.314;2022-09-01T14:32:05;1.63;;;1.50;;
3949;SDS011;53057;50.988;6.314;2022-09-01T14:34:33;1.77;;;1.67;;
3949;SDS011;53057;50.988;6.314;2022-09-01T14:37:00;4.40;;;1.87;;
3949;SDS011;53057;50.988;6.314;2022-09-01T14:39:28;4.10;;;1.57;;
3949;SDS011;53057;50.988;6.314;2022-09-01T14:41:56;1.20;;;1.10;;
3949;SDS011;53057;50.988;6.314;2022-09-01T14:44:22;2.50;;;1.73;;
3949;SDS011;53057;50.988;6.314;2022-09-01T14:46:49;4.40;;;1.50;;
3949;SDS011;53057;50.988;6.314;2022-09-01T14:49:17;1.43;;;1.20;;
3949;SDS011;53057;50.988;6.314;2022-09-01T14:51:48;2.30;;;1.67;;
3949;SDS011;53057;50.988;6.314;2022-09-01T14:54:35;3.53;;;1.60;;
3949;SDS011;53057;50.988;6.314;2022-09-01T14:57:02;8.00;;;1.57;;
3949;SDS011;53057;50.988;6.314;2022-09-01T14:59:49;2.23;;;2.03;;
3949;SDS011;53057;50.988;6.314;2022-09-01T15:02:18;3.40;;;1.70;;
3949;SDS011;53057;50.988;6.314;2022-09-01T15:04:45;1.80;;;1.70;;
3949;SDS011;53057;50.988;6.314;2022-09-01T15:07:12;1.93;;;1.83;;
3949;SDS011;53057;50.988;6.314;2022-09-01T15:09:39;3.47;;;1.63;;
3949;SDS011;53057;50.988;6.314;2022-09-01T15:12:06;6.33;;;1.57;;
3949;SDS011;53057;50.988;6.314;2022-09-01T15:14:35;1.63;;;1.53;;
3949;SDS011;53057;50.988;6.314;2022-09-01T15:17:03;2.20;;;2.10;;
3949;SDS011;53057;50.988;6.314;2022-09-01T15:19:30;3.50;;;1.70;;
3949;SDS011;53057;50.988;6.314;2022-09-01T15:21:57;1.90;;;1.80;;
3949;SDS011;53057;50.988;6.314;2022-09-01T15:24:23;1.87;;;1.70;;
3949;SDS011;53057;50.988;6.314;2022-09-01T15:26:50;3.23;;;2.10;;
3949;SDS011;53057;50.988;6.314;2022-09-01T15:29:17;2.50;;;2.17;;
3949;SDS011;53057;50.988;6.314;2022-09-01T15:31:44;2.00;;;1.80;;
3949;SDS011;53057;50.988;6.314;2022-09-01T15:34:12;3.13;;;2.37;;
3949;SDS011;53057;50.988;6.314;2022-09-01T15:36:40;1.90;;;1.80;;
3949;SDS011;53057;50.988;6.314;2022-09-01T15:39:07;1.73;;;1.63;;
3949;SDS011;53057;50.988;6.314;2022-09-01T15:41:35;3.23;;;2.93;;
3949;SDS011;53057;50.988;6.314;2022-09-01T15:44:03;1.90;;;1.80;;
3949;SDS011;53057;50.988;6.314;2022-09-01T15:46:31;4.33;;;1.83;;
3949;SDS011;53057;50.988;6.314;2022-09-01T15:49:00;7.33;;;2.80;;
3949;SDS011;53057;50.988;6.314;2022-09-01T15:51:32;3.90;;;3.10;;
3949;SDS011;53057;50.988;6.314;2022-09-01T15:54:04;2.53;;;2.43;;
3949;SDS011;53057;50.988;6.314;2022-09-01T15:56:31;8.27;;;2.33;;
3949;SDS011;53057;50.988;6.314;2022-09-01T15:58:59;5.37;;;1.93;;
3949;SDS011;53057;50.988;6.314;2022-09-01T16:01:28;2.40;;;2.20;;
3949;SDS011;53057;50.988;6.314;2022-09-01T16:03:55;4.67;;;2.00;;
3949;SDS011;53057;50.988;6.314;2022-09-01T16:06:22;2.07;;;1.97;;
3949;SDS011;53057;50.988;6.314;2022-09-01T16:08:56;2.23;;;2.07;;
3949;SDS011;53057;50.988;6.314;2022-09-01T16:11:24;2.70;;;2.60;;
3949;SDS011;53057;50.988;6.314;2022-09-01T16:13:52;3.03;;;2.43;;
3949;SDS011;53057;50.988;6.314;2022-09-01T16:19:05;2.80;;;2.03;;
3949;SDS011;53057;50.988;6.314;2022-09-01T16:22:20;3.50;;;3.20;;
3949;SDS011;53057;50.988;6.314;2022-09-01T16:24:37;2.77;;;2.57;;
3949;SDS011;53057;50.988;6.314;2022-09-01T16:27:06;3.30;;;2.77;;
3949;SDS011;53057;50.988;6.314;2022-09-01T16:29:41;3.40;;;3.07;;
3949;SDS011;53057;50.988;6.314;2022-09-01T16:32:36;3.63;;;3.10;;
3949;SDS011;53057;50.988;6.314;2022-09-01T16:35:07;5.40;;;3.07;;
3949;SDS011;53057;50.988;6.314;2022-09-01T16:37:39;2.77;;;2.57;;
3949;SDS011;53057;50.988;6.314;2022-09-01T16:40:24;5.87;;;2.60;;